createdAt,value
2019-02-07T00:00:20.310Z,33.30
2019-02-07T00:02:57.237Z,33.20
2019-02-07T00:05:33.738Z,33.20
2019-02-07T00:08:11.254Z,33.30
2019-02-07T00:10:48.221Z,33.30
2019-02-07T00:13:24.830Z,33.20
2019-02-07T00:16:00.892Z,33.20
2019-02-07T00:18:38.460Z,33.20
2019-02-07T00:21:14.910Z,33.20
2019-02-07T00:23:51.260Z,33.20
2019-02-07T00:26:27.165Z,33.20
2019-02-07T00:29:04.949Z,33.20
2019-02-07T00:31:41.392Z,33.20
2019-02-07T00:34:17.627Z,33.20
2019-02-07T00:36:54.023Z,33.30
2019-02-07T00:39:31.026Z,33.30
2019-02-07T00:42:07.753Z,33.80
2019-02-07T00:44:50.804Z,33.20
2019-02-07T00:47:22.427Z,33.20
2019-02-07T00:49:58.985Z,33.20
2019-02-07T00:52:34.884Z,33.20
2019-02-07T00:55:13.156Z,33.30
2019-02-07T00:57:49.667Z,33.30
2019-02-07T01:00:26.651Z,33.30
2019-02-07T01:03:03.009Z,33.20
2019-02-07T01:05:39.749Z,33.30
2019-02-07T01:08:16.558Z,33.30
2019-02-07T01:10:52.588Z,33.20
2019-02-07T01:13:28.664Z,33.30
2019-02-07T01:16:05.161Z,33.30
2019-02-07T01:18:41.313Z,33.30
2019-02-07T01:21:17.894Z,33.30
2019-02-07T01:23:54.765Z,33.30
2019-02-07T01:26:31.143Z,33.30
2019-02-07T01:29:07.828Z,33.30
2019-02-07T01:31:44.328Z,33.30
2019-02-07T01:34:20.522Z,33.40
2019-02-07T01:36:57.842Z,33.30
2019-02-07T01:39:34.093Z,33.30
2019-02-07T01:42:10.627Z,33.30
2019-02-07T01:44:47.145Z,33.30
2019-02-07T01:47:23.408Z,34.00
2019-02-07T01:49:59.861Z,33.30
2019-02-07T01:52:37.289Z,33.30
2019-02-07T01:55:13.914Z,33.30
2019-02-07T01:57:50.772Z,33.30
2019-02-07T02:00:27.337Z,33.40
2019-02-07T02:03:03.953Z,33.40
2019-02-07T02:05:40.371Z,33.40
2019-02-07T02:08:16.743Z,33.40
2019-02-07T02:10:53.097Z,33.30
2019-02-07T02:13:29.468Z,33.40
2019-02-07T02:16:05.913Z,33.30
2019-02-07T02:18:43.440Z,33.80
2019-02-07T02:21:19.281Z,33.30
2019-02-07T02:23:56.558Z,33.40
2019-02-07T02:26:32.978Z,33.30
2019-02-07T02:29:09.964Z,33.30
2019-02-07T02:31:46.010Z,33.30
2019-02-07T02:34:23.843Z,33.30
2019-02-07T02:37:00.365Z,33.30
2019-02-07T02:39:37.254Z,33.40
2019-02-07T02:42:13.515Z,33.40
2019-02-07T02:44:50.415Z,33.40
2019-02-07T02:47:26.769Z,33.40
2019-02-07T02:50:08.558Z,33.50
2019-02-07T02:52:45.685Z,33.40
2019-02-07T02:55:29.254Z,33.40
2019-02-07T02:58:06.778Z,33.40
2019-02-07T03:01:17.295Z,33.80
2019-02-07T03:04:11.384Z,33.40
2019-02-07T03:07:19.411Z,33.50
2019-02-07T03:10:14.732Z,33.40
2019-02-07T03:13:08.422Z,33.60
2019-02-07T03:16:06.805Z,33.60
2019-02-07T03:19:01.132Z,33.60
2019-02-07T03:22:02.641Z,33.20
2019-02-07T03:25:06.977Z,33.60
2019-02-07T03:28:11.253Z,33.60
2019-02-07T03:31:15.813Z,33.60
2019-02-07T03:34:02.821Z,33.60
2019-02-07T03:36:52.923Z,33.60
2019-02-07T03:39:45.588Z,33.60
2019-02-07T03:42:47.685Z,33.60
2019-02-07T03:46:02.063Z,33.60
2019-02-07T03:48:56.175Z,33.60
2019-02-07T03:51:49.842Z,33.60
2019-02-07T03:54:53.561Z,33.60
2019-02-07T03:58:03.863Z,33.60
2019-02-07T04:01:00.771Z,33.60
2019-02-07T04:04:14.446Z,33.60
2019-02-07T04:07:01.740Z,33.60
2019-02-07T04:10:00.069Z,33.60
2019-02-07T04:12:54.286Z,33.50
2019-02-07T04:15:48.644Z,33.60
2019-02-07T04:18:50.585Z,33.50
2019-02-07T04:22:03.818Z,33.50
2019-02-07T04:25:08.368Z,33.50
2019-02-07T04:28:10.649Z,33.60
2019-02-07T04:30:53.729Z,33.60
2019-02-07T04:33:55.069Z,33.60
2019-02-07T04:36:50.569Z,33.60
2019-02-07T04:39:44.634Z,33.50
2019-02-07T04:42:38.313Z,33.60
2019-02-07T04:45:29.394Z,33.50
2019-02-07T04:48:23.284Z,33.60
2019-02-07T04:51:16.954Z,33.50
2019-02-07T04:54:10.961Z,33.50
2019-02-07T04:57:03.676Z,33.50
2019-02-07T05:00:02.224Z,33.60
2019-02-07T05:02:51.537Z,33.60
2019-02-07T05:05:56.288Z,33.60
2019-02-07T05:08:51.289Z,33.90
2019-02-07T05:11:46.685Z,33.50
2019-02-07T05:14:40.208Z,33.60
2019-02-07T05:17:36.367Z,33.50
2019-02-07T05:20:31.784Z,33.60
2019-02-07T05:23:25.665Z,33.60
2019-02-07T05:26:29.773Z,33.50
2019-02-07T05:29:21.185Z,33.50
2019-02-07T05:32:23.072Z,33.50
2019-02-07T05:35:23.986Z,33.60
2019-02-07T05:38:25.974Z,33.60
2019-02-07T05:41:30.108Z,33.60
2019-02-07T05:44:25.217Z,33.60
2019-02-07T05:47:26.463Z,33.60
2019-02-07T05:50:40.449Z,33.60
2019-02-07T05:53:30.089Z,33.20
2019-02-07T05:56:34.669Z,33.60
2019-02-07T05:59:36.384Z,33.60
2019-02-07T06:02:37.888Z,33.70
2019-02-07T06:05:34.284Z,34.70
2019-02-07T06:08:27.107Z,36.10
2019-02-07T06:11:24.947Z,35.50
2019-02-07T06:14:26.852Z,36.30
2019-02-07T06:17:21.824Z,36.60
2019-02-07T06:20:26.264Z,36.80
2019-02-07T06:23:20.630Z,36.70
2019-02-07T06:26:07.366Z,37.90
2019-02-07T06:29:08.372Z,37.20
2019-02-07T06:32:10.376Z,41.40
2019-02-07T06:35:05.001Z,41.90
2019-02-07T06:38:09.105Z,42.00
2019-02-07T06:41:22.767Z,40.10
2019-02-07T06:44:25.310Z,40.20
2019-02-07T06:47:30.040Z,39.30
2019-02-07T06:50:24.800Z,39.00
2019-02-07T06:53:18.499Z,39.30
2019-02-07T06:56:29.515Z,38.90
2019-02-07T06:59:34.216Z,38.30
2019-02-07T07:02:28.365Z,38.20
2019-02-07T07:05:31.532Z,38.90
2019-02-07T07:08:38.863Z,36.70
2019-02-07T07:11:34.529Z,35.20
2019-02-07T07:14:33.484Z,34.50
2019-02-07T07:17:34.524Z,34.60
2019-02-07T07:20:43.033Z,35.50
2019-02-07T07:23:37.073Z,35.60
2019-02-07T07:26:31.933Z,36.00
2019-02-07T07:29:30.005Z,36.20
2019-02-07T07:32:36.073Z,36.30
2019-02-07T07:35:30.595Z,36.40
2019-02-07T07:38:23.017Z,36.50
2019-02-07T07:41:25.216Z,36.60
2019-02-07T07:44:15.172Z,36.60
2019-02-07T07:47:18.709Z,36.60
2019-02-07T07:50:08.020Z,36.70
2019-02-07T07:53:02.113Z,36.40
2019-02-07T07:55:46.661Z,36.70
2019-02-07T07:58:45.096Z,36.50
2019-02-07T08:01:39.548Z,36.70
2019-02-07T08:04:30.968Z,36.60
2019-02-07T08:07:19.129Z,36.60
2019-02-07T08:10:12.544Z,36.50
2019-02-07T08:13:06.181Z,36.50
2019-02-07T08:16:17.781Z,36.60
2019-02-07T08:19:22.105Z,36.50
2019-02-07T08:22:33.017Z,36.50
2019-02-07T08:25:31.510Z,36.40
2019-02-07T08:28:17.795Z,36.40
2019-02-07T08:31:13.758Z,36.40
2019-02-07T08:34:25.829Z,36.40
2019-02-07T08:37:19.603Z,36.40
2019-02-07T08:40:14.540Z,36.40
2019-02-07T08:43:08.186Z,36.60
2019-02-07T08:46:07.330Z,36.40
2019-02-07T08:49:02.565Z,36.50
2019-02-07T08:52:13.281Z,36.40
2019-02-07T08:55:07.726Z,36.50
2019-02-07T08:58:12.476Z,36.40
2019-02-07T09:01:18.148Z,36.40
2019-02-07T09:04:07.350Z,36.50
2019-02-07T09:07:21.124Z,36.40
2019-02-07T09:10:19.990Z,36.40
2019-02-07T09:13:27.104Z,36.40
2019-02-07T09:16:23.128Z,36.40
2019-02-07T09:19:10.708Z,36.40
2019-02-07T09:22:07.986Z,36.30
2019-02-07T09:25:04.300Z,36.30
2019-02-07T09:27:48.903Z,36.20
2019-02-07T09:30:42.993Z,36.20
2019-02-07T09:33:37.309Z,36.20
2019-02-07T09:36:31.172Z,36.20
2019-02-07T09:39:27.237Z,36.10
2019-02-07T09:42:20.349Z,36.00
2019-02-07T09:45:16.243Z,36.10
2019-02-07T09:48:21.395Z,36.10
2019-02-07T09:51:17.779Z,36.00
2019-02-07T09:54:29.325Z,36.00
2019-02-07T09:57:24.417Z,36.10
2019-02-07T10:00:32.561Z,36.00
2019-02-07T10:03:19.358Z,36.00
2019-02-07T10:06:15.005Z,36.00
2019-02-07T10:09:02.783Z,36.70
2019-02-07T10:12:12.732Z,36.00
2019-02-07T10:15:02.481Z,36.60
2019-02-07T10:17:58.180Z,36.10
2019-02-07T10:20:52.965Z,36.10
2019-02-07T10:24:02.847Z,36.10
2019-02-07T10:27:13.468Z,36.10
2019-02-07T10:30:01.787Z,35.90
2019-02-07T10:33:04.269Z,36.00
2019-02-07T10:35:58.728Z,36.10
2019-02-07T10:38:44.567Z,36.10
2019-02-07T10:41:31.903Z,36.00
2019-02-07T10:44:25.348Z,36.10
2019-02-07T10:47:18.968Z,35.40
2019-02-07T10:50:07.184Z,36.00
2019-02-07T10:53:08.152Z,36.00
2019-02-07T10:56:02.492Z,36.10
2019-02-07T10:58:56.480Z,36.10
2019-02-07T11:01:51.776Z,36.00
2019-02-07T11:04:45.753Z,36.00
2019-02-07T11:07:47.826Z,36.00
2019-02-07T11:10:55.900Z,36.00
2019-02-07T11:13:45.573Z,36.10
2019-02-07T11:16:52.717Z,36.00
2019-02-07T11:20:00.385Z,36.10
2019-02-07T11:22:56.000Z,36.10
2019-02-07T11:25:51.248Z,36.10
2019-02-07T11:28:42.604Z,36.00
2019-02-07T11:31:47.681Z,36.60
2019-02-07T11:34:53.802Z,36.80
2019-02-07T11:37:49.290Z,36.40
2019-02-07T11:40:41.354Z,36.20
2019-02-07T11:43:35.687Z,36.30
2019-02-07T11:46:41.601Z,36.40
2019-02-07T11:49:34.624Z,36.30
2019-02-07T11:52:33.279Z,37.70
2019-02-07T11:55:32.180Z,37.00
2019-02-07T11:58:33.877Z,36.70
2019-02-07T12:01:27.319Z,36.50
2019-02-07T12:04:21.408Z,36.50
2019-02-07T12:07:16.349Z,36.40
2019-02-07T12:10:20.857Z,36.50
2019-02-07T12:13:18.539Z,36.50
2019-02-07T12:16:15.028Z,36.40
2019-02-07T12:19:18.327Z,36.40
2019-02-07T12:22:19.953Z,36.40
2019-02-07T12:25:15.902Z,36.30
2019-02-07T12:28:10.010Z,36.20
2019-02-07T12:31:04.429Z,36.20
2019-02-07T12:33:58.032Z,36.20
2019-02-07T12:36:44.285Z,36.30
2019-02-07T12:39:48.972Z,36.30
2019-02-07T12:42:43.128Z,36.30
2019-02-07T12:45:30.436Z,36.20
2019-02-07T12:48:24.102Z,36.10
2019-02-07T12:51:11.324Z,36.20
2019-02-07T12:54:07.117Z,36.30
2019-02-07T12:57:02.457Z,36.40
2019-02-07T12:59:56.885Z,36.40
2019-02-07T13:03:01.598Z,36.40
2019-02-07T13:05:56.721Z,36.40
2019-02-07T13:08:56.372Z,36.40
2019-02-07T13:11:55.597Z,36.40
2019-02-07T13:14:48.591Z,36.40
2019-02-07T13:17:43.476Z,36.50
2019-02-07T13:20:29.019Z,36.60
2019-02-07T13:23:23.485Z,36.40
2019-02-07T13:26:18.290Z,36.40
2019-02-07T13:29:12.394Z,36.20
2019-02-07T13:32:26.354Z,36.20
2019-02-07T13:35:20.133Z,36.00
2019-02-07T13:38:09.451Z,36.10
2019-02-07T13:41:03.529Z,36.10
2019-02-07T13:43:57.718Z,36.00
2019-02-07T13:46:51.648Z,36.00
2019-02-07T13:50:01.817Z,36.00
2019-02-07T13:52:51.927Z,35.90
2019-02-07T13:55:53.477Z,35.90
2019-02-07T13:58:47.836Z,35.90
2019-02-07T14:01:47.048Z,35.90
2019-02-07T14:04:48.917Z,35.80
2019-02-07T14:08:00.313Z,35.60
2019-02-07T14:10:55.532Z,35.50
2019-02-07T14:13:54.206Z,35.70
2019-02-07T14:16:52.788Z,35.80
2019-02-07T14:19:46.843Z,35.60
2019-02-07T14:22:43.360Z,35.60
2019-02-07T14:25:42.037Z,35.50
2019-02-07T14:28:40.157Z,35.40
2019-02-07T14:31:33.687Z,35.50
2019-02-07T14:34:34.692Z,34.80
2019-02-07T14:37:29.161Z,35.50
2019-02-07T14:40:30.674Z,35.50
2019-02-07T14:43:20.695Z,35.50
2019-02-07T14:46:12.321Z,36.30
2019-02-07T14:48:48.540Z,35.60
2019-02-07T14:51:25.357Z,35.60
2019-02-07T14:54:01.904Z,35.60
2019-02-07T14:56:39.300Z,35.60
2019-02-07T14:59:15.050Z,35.60
2019-02-07T15:01:52.198Z,35.50
2019-02-07T15:04:28.762Z,35.50
2019-02-07T15:07:06.060Z,35.50
2019-02-07T15:09:42.269Z,35.50
2019-02-07T15:12:19.109Z,35.50
2019-02-07T15:14:55.946Z,35.50
2019-02-07T15:17:32.629Z,35.40
2019-02-07T15:20:09.355Z,35.40
2019-02-07T15:22:45.549Z,35.40
2019-02-07T15:25:21.692Z,35.40
2019-02-07T15:27:57.853Z,35.40
2019-02-07T15:30:34.601Z,35.40
2019-02-07T15:33:11.452Z,35.50
2019-02-07T15:35:50.654Z,35.40
2019-02-07T15:38:27.380Z,35.30
2019-02-07T15:41:03.192Z,35.40
2019-02-07T15:43:40.602Z,35.30
2019-02-07T15:46:17.372Z,35.30
2019-02-07T15:48:53.736Z,35.40
2019-02-07T15:51:29.640Z,35.40
2019-02-07T15:54:06.575Z,35.50
2019-02-07T15:56:42.346Z,35.40
2019-02-07T15:59:39.949Z,35.50
2019-02-07T16:02:39.233Z,35.50
2019-02-07T16:05:15.879Z,35.50
2019-02-07T16:07:52.098Z,35.60
2019-02-07T16:10:28.382Z,35.60
2019-02-07T16:13:04.633Z,35.60
2019-02-07T16:15:41.073Z,35.60
2019-02-07T16:18:18.104Z,35.70
2019-02-07T16:20:56.146Z,35.70
2019-02-07T16:23:32.097Z,35.70
2019-02-07T16:26:09.198Z,35.80
2019-02-07T16:28:44.849Z,35.70
2019-02-07T16:31:21.433Z,35.70
2019-02-07T16:33:58.296Z,35.80
2019-02-07T16:36:35.166Z,35.70
2019-02-07T16:39:11.461Z,35.90
2019-02-07T16:41:49.180Z,35.80
2019-02-07T16:44:26.173Z,35.60
2019-02-07T16:47:03.864Z,35.80
2019-02-07T16:49:40.314Z,36.80
2019-02-07T16:52:16.664Z,36.10
2019-02-07T16:54:53.534Z,36.00
2019-02-07T16:57:30.025Z,36.20
2019-02-07T17:00:13.526Z,36.20
2019-02-07T17:02:50.813Z,36.10
2019-02-07T17:05:27.098Z,36.10
2019-02-07T17:08:03.679Z,36.60
2019-02-07T17:10:40.632Z,41.40
2019-02-07T17:13:17.108Z,39.90
2019-02-07T17:15:53.804Z,40.20
2019-02-07T17:18:30.400Z,39.60
2019-02-07T17:21:12.817Z,39.60
2019-02-07T17:23:45.521Z,39.60
2019-02-07T17:26:21.919Z,39.20
2019-02-07T17:28:58.447Z,38.90
2019-02-07T17:31:34.696Z,39.30
2019-02-07T17:34:11.588Z,39.00
2019-02-07T17:36:48.520Z,39.00
2019-02-07T17:39:24.439Z,39.10
2019-02-07T17:42:00.424Z,39.20
2019-02-07T17:44:36.663Z,39.20
2019-02-07T17:47:12.564Z,39.20
2019-02-07T17:49:48.313Z,38.90
2019-02-07T17:52:24.821Z,38.70
2019-02-07T17:55:02.188Z,39.20
2019-02-07T17:57:38.839Z,38.70
2019-02-07T18:00:46.752Z,39.20
2019-02-07T18:03:23.621Z,39.20
2019-02-07T18:06:00.506Z,39.10
2019-02-07T18:08:37.774Z,39.10
2019-02-07T18:11:13.757Z,39.00
2019-02-07T18:13:50.180Z,38.80
2019-02-07T18:16:27.049Z,39.00
2019-02-07T18:19:03.050Z,38.90
2019-02-07T18:21:39.372Z,39.10
2019-02-07T18:24:15.509Z,38.60
2019-02-07T18:26:51.910Z,38.50
2019-02-07T18:29:28.734Z,36.50
2019-02-07T18:32:05.972Z,35.20
2019-02-07T18:34:42.163Z,34.90
2019-02-07T18:37:18.788Z,35.30
2019-02-07T18:39:55.406Z,35.70
2019-02-07T18:42:32.021Z,35.80
2019-02-07T18:45:10.593Z,35.80
2019-02-07T18:47:47.132Z,35.50
2019-02-07T18:50:29.010Z,35.60
2019-02-07T18:53:06.206Z,35.80
2019-02-07T18:55:42.688Z,35.90
2019-02-07T18:58:19.524Z,35.90
2019-02-07T19:00:55.956Z,36.20
2019-02-07T19:03:32.441Z,36.90
2019-02-07T19:06:09.108Z,37.70
2019-02-07T19:08:44.992Z,37.50
2019-02-07T19:11:20.736Z,36.90
2019-02-07T19:13:57.332Z,36.90
2019-02-07T19:16:33.561Z,37.20
2019-02-07T19:19:10.573Z,37.60
2019-02-07T19:21:56.511Z,37.80
2019-02-07T19:24:26.686Z,37.80
2019-02-07T19:27:02.879Z,37.80
2019-02-07T19:29:39.136Z,37.90
2019-02-07T19:32:15.044Z,37.90
2019-02-07T19:34:52.128Z,37.90
2019-02-07T19:37:28.633Z,38.10
2019-02-07T19:40:07.517Z,38.20
2019-02-07T19:42:43.868Z,37.80
2019-02-07T19:45:21.157Z,37.60
2019-02-07T19:47:57.096Z,37.50
2019-02-07T19:50:33.581Z,37.30
2019-02-07T19:53:10.096Z,37.10
2019-02-07T19:55:46.149Z,37.10
2019-02-07T19:58:22.562Z,36.90
2019-02-07T20:00:59.132Z,36.90
2019-02-07T20:03:35.501Z,36.80
2019-02-07T20:06:12.421Z,36.80
2019-02-07T20:08:49.361Z,36.70
2019-02-07T20:11:25.325Z,36.60
2019-02-07T20:14:01.816Z,36.60
2019-02-07T20:16:38.556Z,36.50
2019-02-07T20:19:15.152Z,36.40
2019-02-07T20:21:52.339Z,36.40
2019-02-07T20:24:28.366Z,36.40
2019-02-07T20:27:06.213Z,36.40
2019-02-07T20:29:44.167Z,36.40
2019-02-07T20:32:21.788Z,36.30
2019-02-07T20:34:58.196Z,36.20
2019-02-07T20:37:34.504Z,36.20
2019-02-07T20:40:11.223Z,36.20
2019-02-07T20:42:47.957Z,36.10
2019-02-07T20:45:25.406Z,36.20
2019-02-07T20:48:02.421Z,36.20
2019-02-07T20:50:38.348Z,36.10
2019-02-07T20:53:17.529Z,36.10
2019-02-07T20:55:54.300Z,36.10
2019-02-07T20:58:30.946Z,36.00
2019-02-07T21:01:07.075Z,36.10
2019-02-07T21:03:43.908Z,36.10
2019-02-07T21:06:20.669Z,36.10
2019-02-07T21:08:57.183Z,36.20
2019-02-07T21:11:33.381Z,37.80
2019-02-07T21:14:09.792Z,37.60
2019-02-07T21:16:46.861Z,37.40
2019-02-07T21:19:23.165Z,36.90
2019-02-07T21:21:59.477Z,36.50
2019-02-07T21:24:35.965Z,36.70
2019-02-07T21:27:12.732Z,36.60
2019-02-07T21:29:50.285Z,36.90
2019-02-07T21:32:26.677Z,36.50
2019-02-07T21:35:03.804Z,36.40
2019-02-07T21:37:40.046Z,36.40
2019-02-07T21:40:18.948Z,36.40
2019-02-07T21:42:56.572Z,36.30
2019-02-07T21:45:32.541Z,36.30
2019-02-07T21:48:10.887Z,36.30
2019-02-07T21:50:46.991Z,36.20
2019-02-07T21:53:23.686Z,36.10
2019-02-07T21:56:00.151Z,36.20
2019-02-07T21:58:36.798Z,36.10
2019-02-07T22:01:13.996Z,36.10
2019-02-07T22:03:50.681Z,36.10
2019-02-07T22:06:27.647Z,36.10
2019-02-07T22:09:08.780Z,36.10
2019-02-07T22:11:46.144Z,36.00
2019-02-07T22:14:23.808Z,36.00
2019-02-07T22:17:00.785Z,36.00
2019-02-07T22:19:38.524Z,36.00
2019-02-07T22:22:15.819Z,36.10
2019-02-07T22:24:52.541Z,36.00
2019-02-07T22:27:29.941Z,36.00
2019-02-07T22:30:08.808Z,36.00
2019-02-07T22:32:45.424Z,35.90
2019-02-07T22:35:21.832Z,35.90
2019-02-07T22:37:59.236Z,36.00
2019-02-07T22:40:35.236Z,36.20
2019-02-07T22:43:12.057Z,35.90
2019-02-07T22:45:49.209Z,35.90
2019-02-07T22:48:25.895Z,35.80
2019-02-07T22:51:02.334Z,35.90
2019-02-07T22:53:39.475Z,35.80
2019-02-07T22:56:16.812Z,36.60
2019-02-07T22:58:53.288Z,37.00
2019-02-07T23:01:51.225Z,37.40
2019-02-07T23:04:29.348Z,37.00
2019-02-07T23:07:05.688Z,37.00
2019-02-07T23:09:41.995Z,37.10
2019-02-07T23:12:18.362Z,38.40
2019-02-07T23:14:54.850Z,38.00
2019-02-07T23:17:31.393Z,37.40
2019-02-07T23:20:08.125Z,37.30
2019-02-07T23:22:44.329Z,37.20
2019-02-07T23:25:20.617Z,37.10
2019-02-07T23:27:56.963Z,37.00
2019-02-07T23:30:32.659Z,36.80
2019-02-07T23:33:09.124Z,36.70
2019-02-07T23:35:45.468Z,36.70
2019-02-07T23:38:22.523Z,36.60
2019-02-07T23:41:00.419Z,36.50
2019-02-07T23:43:45.701Z,36.50
2019-02-07T23:46:16.707Z,36.40
2019-02-07T23:48:53.367Z,36.40
2019-02-07T23:51:30.002Z,36.40
2019-02-07T23:54:06.596Z,36.30
2019-02-07T23:56:43.285Z,36.30
2019-02-07T23:59:19.601Z,36.30
